메인 페이지
METAR-TAF:

METAR-TAF

공항 :

Bartlesville, 오클라호마, 미국

위도: 36-46-06N, 경도: 096-01-34W, 고도: 217m

현재 날씨관측

예보는 19분 전, 00:53시(UTC)에 발표되었습니다.
4kt
온도 18°C
습도 68%
기압 1002 hPa
시정: 16.1km
맑음

METAR: KBVO 210053Z AUTO 17004KT 10SM CLR 18/12 A2960 RMK AO2 SLP020 T01780122 $

시각: 20:12 (01:12 UTC)

예보

예보는 1 시간 32분 전, 23:40시(UTC)에 발표되었습니다.
예보 대상 시간: 21일 00시부터 21일 24시까지 (UTC)
10kt
시정: 10km
고도 5000ft 상공 구름 조금
고도 20000ft 상공 구름 많음
21일 0200시부터 (UTC)
8kt
시정: 10km
고도 5000ft 상공 구름 많음, 적란운.
시계 내 뇌우
일시적
21일 03시부터 21일 05시까지 (UTC)
여러 방향의 바람 15kt, 순간 최대 풍속 30kt
시정: 4.8km
고도 2500ft 상공 구름 많음, 적란운.
뇌우, 비, 박무
21일 0600시부터 (UTC)
북북서8kt
시정: 10km
고도 7000ft 상공 구름 많음
21일 0800시부터 (UTC)
서북서8kt
시정: 10km
맑음
21일 1500시부터 (UTC)
11kt, 순간 최대 풍속 17kt
시정: 10km
맑음

TAF: KBVO 202340Z 2100/2124 18010KT P6SM FEW050 BKN200 FM210200 19008KT P6SM VCTS BKN050CB TEMPO 2103/2105 VRB15G30KT 3SM TSRA BR BKN025CB FM210600 34008KT P6SM BKN070 FM210800 30008KT P6SM SKC FM211500 28011G17KT P6SM SKC

4,000개 이상의 공항 관측 자료 및 예보 (METAR 및 TAF 보고).

지도상에서 검색 가능한 기상관측소가 노란 점과 빨간 점으로 표시되어 있습니다.

기상관측소 명을 보려면 표시 위로 마우스를 이동하세요.

날씨 관측과 예보를 보려면 클릭하세요.

지도 변경 : 확대하려면 엑스 표시가 있는 녹색 버튼, 축소하려면 빼기 표시가 있는 녹색 버튼, 다음 페이지의 지도를 보려면 녹색 화살표를 클릭하세요.


METAR-TAF: